Terminal Aerodrome Forecast
Issued by NWS

Current Version | Previous Version | Text Only | Print | Product List | Glossary On
Versions: 1 2 3 4 5 6 7 8 9 10 11 12 13
000
FTUS42 TJSJ 270500
TAFKPK
TAF
TKPK 270520Z 2706/2806 09013KT P6SM SCT020
     FM271300 11010KT P6SM VCSH FEW020
     FM272200 08011KT P6SM VCSH BKN020
      AMD NOT SKED TIL 271100=

USA.gov is the U.S. government's official web portal to all federal, state and local government web resources and services.